sensor_id;sensor_type;location;lat;lon;timestamp;pressure;altitude;pressure_sealevel;temperature;humidity
21504;BME280;10913;51.992;9.228;2024-01-30T00:01:41;101565.41;;;4.41;97.90
21504;BME280;10913;51.992;9.228;2024-01-30T00:04:06;101559.13;;;4.36;97.95
21504;BME280;10913;51.992;9.228;2024-01-30T00:06:34;101565.19;;;4.35;98.03
21504;BME280;10913;51.992;9.228;2024-01-30T00:09:00;101565.19;;;4.35;98.18
21504;BME280;10913;51.992;9.228;2024-01-30T00:11:31;101561.63;;;4.33;98.47
21504;BME280;10913;51.992;9.228;2024-01-30T00:13:57;101570.25;;;4.31;98.70
21504;BME280;10913;51.992;9.228;2024-01-30T00:16:24;101569.34;;;4.30;99.35
21504;BME280;10913;51.992;9.228;2024-01-30T00:18:53;101569.16;;;4.26;100.00
21504;BME280;10913;51.992;9.228;2024-01-30T00:21:29;101558.63;;;4.24;100.00
21504;BME280;10913;51.992;9.228;2024-01-30T00:23:54;101571.72;;;4.24;100.00
21504;BME280;10913;51.992;9.228;2024-01-30T00:26:23;101575.16;;;4.23;100.00
21504;BME280;10913;51.992;9.228;2024-01-30T00:28:48;101573.38;;;4.22;100.00
21504;BME280;10913;51.992;9.228;2024-01-30T00:31:16;101576.81;;;4.21;99.86
21504;BME280;10913;51.992;9.228;2024-01-30T00:33:44;101581.16;;;4.21;100.00
21504;BME280;10913;51.992;9.228;2024-01-30T00:36:13;101578.50;;;4.19;100.00
21504;BME280;10913;51.992;9.228;2024-01-30T00:38:38;101573.16;;;4.16;100.00
21504;BME280;10913;51.992;9.228;2024-01-30T00:41:04;101576.53;;;4.13;100.00
21504;BME280;10913;51.992;9.228;2024-01-30T00:43:40;101566.97;;;4.14;100.00
21504;BME280;10913;51.992;9.228;2024-01-30T00:46:05;101573.03;;;4.13;100.00
21504;BME280;10913;51.992;9.228;2024-01-30T00:48:33;101578.25;;;4.13;100.00
21504;BME280;10913;51.992;9.228;2024-01-30T00:50:59;101577.38;;;4.12;100.00
21504;BME280;10913;51.992;9.228;2024-01-30T00:53:27;101572.06;;;4.11;100.00
21504;BME280;10913;51.992;9.228;2024-01-30T00:55:52;101567.53;;;4.07;100.00
21504;BME280;10913;51.992;9.228;2024-01-30T00:58:23;101572.56;;;4.02;100.00
21504;BME280;10913;51.992;9.228;2024-01-30T01:00:49;101572.66;;;4.04;100.00
21504;BME280;10913;51.992;9.228;2024-01-30T01:03:23;101568.31;;;4.04;100.00
21504;BME280;10913;51.992;9.228;2024-01-30T01:05:50;101571.75;;;4.03;100.00
21504;BME280;10913;51.992;9.228;2024-01-30T01:08:15;101573.41;;;4.01;100.00
21504;BME280;10913;51.992;9.228;2024-01-30T01:10:41;101580.34;;;4.01;100.00
21504;BME280;10913;51.992;9.228;2024-01-30T01:13:09;101572.41;;;3.98;100.00
21504;BME280;10913;51.992;9.228;2024-01-30T01:15:35;101574.91;;;3.95;100.00
21504;BME280;10913;51.992;9.228;2024-01-30T01:18:00;101571.41;;;3.94;100.00
21504;BME280;10913;51.992;9.228;2024-01-30T01:20:26;101580.00;;;3.92;100.00
21504;BME280;10913;51.992;9.228;2024-01-30T01:22:54;101571.28;;;3.91;100.00
21504;BME280;10913;51.992;9.228;2024-01-30T01:25:20;101578.22;;;3.91;100.00
21504;BME280;10913;51.992;9.228;2024-01-30T01:27:45;101573.81;;;3.90;100.00
21504;BME280;10913;51.992;9.228;2024-01-30T01:30:18;101571.06;;;3.87;100.00
21504;BME280;10913;51.992;9.228;2024-01-30T03:49:53;101468.41;;;3.68;100.00
21504;BME280;10913;51.992;9.228;2024-01-30T03:52:32;101473.50;;;3.65;100.00
21504;BME280;10913;51.992;9.228;2024-01-30T03:55:18;101469.06;;;3.63;100.00
21504;BME280;10913;51.992;9.228;2024-01-30T03:57:46;101468.09;;;3.61;100.00
21504;BME280;10913;51.992;9.228;2024-01-30T04:00:12;101462.94;;;3.62;100.00
21504;BME280;10913;51.992;9.228;2024-01-30T04:02:39;101465.53;;;3.62;100.00
21504;BME280;10913;51.992;9.228;2024-01-30T04:05:16;101467.16;;;3.59;100.00
21504;BME280;10913;51.992;9.228;2024-01-30T04:07:41;101461.81;;;3.56;100.00
21504;BME280;10913;51.992;9.228;2024-01-30T04:10:09;101465.25;;;3.55;100.00
21504;BME280;10913;51.992;9.228;2024-01-30T04:12:37;101460.66;;;3.49;100.00
21504;BME280;10913;51.992;9.228;2024-01-30T04:15:02;101457.09;;;3.47;100.00
21504;BME280;10913;51.992;9.228;2024-01-30T04:17:34;101457.09;;;3.47;100.00
21504;BME280;10913;51.992;9.228;2024-01-30T04:20:00;101455.31;;;3.46;100.00
21504;BME280;10913;51.992;9.228;2024-01-30T04:22:28;101455.19;;;3.43;100.00
21504;BME280;10913;51.992;9.228;2024-01-30T04:24:57;101457.78;;;3.43;100.00
21504;BME280;10913;51.992;9.228;2024-01-30T04:27:34;101453.31;;;3.39;100.00
21504;BME280;10913;51.992;9.228;2024-01-30T04:30:02;101461.13;;;3.39;100.00
21504;BME280;10913;51.992;9.228;2024-01-30T04:32:29;101458.63;;;3.42;100.00
21504;BME280;10913;51.992;9.228;2024-01-30T04:35:19;101457.72;;;3.41;100.00
21504;BME280;10913;51.992;9.228;2024-01-30T04:40:38;101454.13;;;3.38;100.00
21504;BME280;10913;51.992;9.228;2024-01-30T04:43:06;101448.84;;;3.36;100.00
21504;BME280;10913;51.992;9.228;2024-01-30T04:45:31;101447.94;;;3.36;100.00
21504;BME280;10913;51.992;9.228;2024-01-30T04:47:57;101454.13;;;3.38;100.00
21504;BME280;10913;51.992;9.228;2024-01-30T04:50:23;101448.84;;;3.36;100.00
21504;BME280;10913;51.992;9.228;2024-01-30T04:52:49;101449.72;;;3.37;100.00
21504;BME280;10913;51.992;9.228;2024-01-30T04:55:14;101447.06;;;3.35;100.00
21504;BME280;10913;51.992;9.228;2024-01-30T04:57:42;101445.22;;;3.33;100.00
21504;BME280;10913;51.992;9.228;2024-01-30T05:00:17;101449.59;;;3.34;100.00
21504;BME280;10913;51.992;9.228;2024-01-30T05:02:45;101453.94;;;3.33;100.00
21504;BME280;10913;51.992;9.228;2024-01-30T05:05:23;101442.47;;;3.30;100.00
21504;BME280;10913;51.992;9.228;2024-01-30T05:07:49;101452.91;;;3.30;100.00
21504;BME280;10913;51.992;9.228;2024-01-30T05:10:21;101452.78;;;3.27;100.00
21504;BME280;10913;51.992;9.228;2024-01-30T05:12:50;101455.31;;;3.25;100.00
21504;BME280;10913;51.992;9.228;2024-01-30T05:15:20;101459.66;;;3.25;100.00
21504;BME280;10913;51.992;9.228;2024-01-30T05:17:46;101451.00;;;3.26;100.00
21504;BME280;10913;51.992;9.228;2024-01-30T05:20:14;101458.84;;;3.26;100.00
21504;BME280;10913;51.992;9.228;2024-01-30T05:22:48;101452.66;;;3.24;100.00
21504;BME280;10913;51.992;9.228;2024-01-30T05:25:28;101458.00;;;3.27;100.00
21504;BME280;10913;51.992;9.228;2024-01-30T05:27:56;101457.13;;;3.26;100.00
21504;BME280;10913;51.992;9.228;2024-01-30T05:30:22;101453.59;;;3.26;100.00
21504;BME280;10913;51.992;9.228;2024-01-30T05:32:47;101450.88;;;3.23;100.00
21504;BME280;10913;51.992;9.228;2024-01-30T05:35:13;101453.53;;;3.24;100.00
21504;BME280;10913;51.992;9.228;2024-01-30T05:37:38;101458.97;;;3.29;100.00
21504;BME280;10913;51.992;9.228;2024-01-30T05:40:21;101455.47;;;3.28;100.00
21504;BME280;10913;51.992;9.228;2024-01-30T05:42:48;101452.03;;;3.29;100.00
21504;BME280;10913;51.992;9.228;2024-01-30T05:45:16;101452.28;;;3.35;100.00
21504;BME280;10913;51.992;9.228;2024-01-30T05:47:47;101439.28;;;3.37;100.00
21504;BME280;10913;51.992;9.228;2024-01-30T05:50:13;101448.97;;;3.39;100.00
21504;BME280;10913;51.992;9.228;2024-01-30T05:52:39;101451.63;;;3.41;100.00
21504;BME280;10913;51.992;9.228;2024-01-30T05:55:04;101452.56;;;3.43;100.00
21504;BME280;10913;51.992;9.228;2024-01-30T05:57:30;101451.75;;;3.44;100.00
21504;BME280;10913;51.992;9.228;2024-01-30T06:00:00;101448.31;;;3.45;100.00
21504;BME280;10913;51.992;9.228;2024-01-30T06:02:27;101439.56;;;3.44;100.00
21504;BME280;10913;51.992;9.228;2024-01-30T06:04:52;101445.69;;;3.45;100.00
21504;BME280;10913;51.992;9.228;2024-01-30T06:07:18;101449.19;;;3.45;100.00
21504;BME280;10913;51.992;9.228;2024-01-30T06:09:43;101447.41;;;3.44;100.00
21504;BME280;10913;51.992;9.228;2024-01-30T06:12:09;101452.00;;;3.50;100.00
21504;BME280;10913;51.992;9.228;2024-01-30T06:14:36;101447.66;;;3.51;100.00
21504;BME280;10913;51.992;9.228;2024-01-30T06:17:10;101441.63;;;3.52;100.00
21504;BME280;10913;51.992;9.228;2024-01-30T06:19:37;101440.72;;;3.51;100.00
21504;BME280;10913;51.992;9.228;2024-01-30T06:22:05;101443.28;;;3.50;100.00
21504;BME280;10913;51.992;9.228;2024-01-30T06:24:32;101433.72;;;3.50;100.00
21504;BME280;10913;51.992;9.228;2024-01-30T06:27:04;101431.22;;;3.53;100.00
21504;BME280;10913;51.992;9.228;2024-01-30T06:29:30;101440.03;;;3.55;100.00
21504;BME280;10913;51.992;9.228;2024-01-30T06:31:55;101431.34;;;3.56;100.00
21504;BME280;10913;51.992;9.228;2024-01-30T06:34:27;101435.69;;;3.56;100.00
21504;BME280;10913;51.992;9.228;2024-01-30T06:36:52;101438.38;;;3.57;100.00
21504;BME280;10913;51.992;9.228;2024-01-30T06:39:18;101436.47;;;3.53;100.00
21504;BME280;10913;51.992;9.228;2024-01-30T06:41:44;101441.69;;;3.53;100.00
21504;BME280;10913;51.992;9.228;2024-01-30T09:53:43;101428.22;;;9.17;93.27
21504;BME280;10913;51.992;9.228;2024-01-30T09:56:12;101425.94;;;9.39;91.69
21504;BME280;10913;51.992;9.228;2024-01-30T09:58:46;101425.25;;;9.52;91.09
21504;BME280;10913;51.992;9.228;2024-01-30T10:01:17;101418.28;;;9.55;90.45
21504;BME280;10913;51.992;9.228;2024-01-30T10:03:55;101421.84;;;9.60;90.25
21504;BME280;10913;51.992;9.228;2024-01-30T10:06:24;101423.53;;;9.54;89.70
21504;BME280;10913;51.992;9.228;2024-01-30T10:09:11;101417.19;;;9.43;90.48
21504;BME280;10913;51.992;9.228;2024-01-30T10:11:39;101413.50;;;9.31;91.05
21504;BME280;10913;51.992;9.228;2024-01-30T10:14:07;101409.94;;;9.28;91.42
21504;BME280;10913;51.992;9.228;2024-01-30T10:16:42;101415.38;;;9.37;91.65
21504;BME280;10913;51.992;9.228;2024-01-30T10:19:10;101418.03;;;9.42;91.29
21504;BME280;10913;51.992;9.228;2024-01-30T10:21:36;101410.34;;;9.54;90.78
21504;BME280;10913;51.992;9.228;2024-01-30T10:24:07;101405.09;;;9.55;90.30
21504;BME280;10913;51.992;9.228;2024-01-30T10:26:44;101397.22;;;9.57;89.90
21504;BME280;10913;51.992;9.228;2024-01-30T10:29:17;101396.25;;;9.52;90.19
21504;BME280;10913;51.992;9.228;2024-01-30T10:31:46;101392.81;;;9.57;90.08
21504;BME280;10913;51.992;9.228;2024-01-30T10:34:18;101397.09;;;9.51;89.31
21504;BME280;10913;51.992;9.228;2024-01-30T10:36:47;101397.97;;;9.50;90.14
21504;BME280;10913;51.992;9.228;2024-01-30T10:39:22;101389.97;;;9.45;90.24
21504;BME280;10913;51.992;9.228;2024-01-30T10:41:49;101401.41;;;9.46;90.29
21504;BME280;10913;51.992;9.228;2024-01-30T10:44:30;101391.72;;;9.45;91.17
21504;BME280;10913;51.992;9.228;2024-01-30T10:47:06;101389.88;;;9.38;90.55
21504;BME280;10913;51.992;9.228;2024-01-30T10:49:51;101389.69;;;9.27;91.40
21504;BME280;10913;51.992;9.228;2024-01-30T10:52:25;101394.84;;;9.21;91.96
21504;BME280;10913;51.992;9.228;2024-01-30T10:54:51;101393.91;;;9.16;92.40
21504;BME280;10913;51.992;9.228;2024-01-30T10:57:23;101390.31;;;9.11;92.70
21504;BME280;10913;51.992;9.228;2024-01-30T10:59:53;101392.75;;;9.00;93.36
21504;BME280;10913;51.992;9.228;2024-01-30T11:02:21;101390.94;;;8.96;93.47
21504;BME280;10913;51.992;9.228;2024-01-30T11:04:56;101382.06;;;8.91;94.05
21504;BME280;10913;51.992;9.228;2024-01-30T11:07:26;101389.00;;;8.86;94.39
21504;BME280;10913;51.992;9.228;2024-01-30T11:12:26;101391.66;;;8.87;94.21
21504;BME280;10913;51.992;9.228;2024-01-30T11:15:11;101389.97;;;8.91;94.39
21504;BME280;10913;51.992;9.228;2024-01-30T11:17:43;101389.19;;;8.96;94.63
21504;BME280;10913;51.992;9.228;2024-01-30T11:20:14;101389.22;;;8.99;94.57
21504;BME280;10913;51.992;9.228;2024-01-30T11:22:41;101391.94;;;9.04;94.30
21504;BME280;10913;51.992;9.228;2024-01-30T11:25:24;101385.16;;;9.17;93.91
21504;BME280;10913;51.992;9.228;2024-01-30T11:27:58;101387.13;;;9.31;93.19
21504;BME280;10913;51.992;9.228;2024-01-30T11:30:40;101384.63;;;9.41;92.27
21504;BME280;10913;51.992;9.228;2024-01-30T11:33:12;101362.88;;;9.55;91.72
21504;BME280;10913;51.992;9.228;2024-01-30T11:35:51;101365.63;;;9.63;91.50
21504;BME280;10913;51.992;9.228;2024-01-30T11:38:46;101353.81;;;10.01;90.77
21504;BME280;10913;51.992;9.228;2024-01-30T11:41:13;101348.81;;;10.23;90.35
21504;BME280;10913;51.992;9.228;2024-01-30T11:43:39;101338.47;;;10.41;88.67
21504;BME280;10913;51.992;9.228;2024-01-30T11:46:07;101342.94;;;10.48;88.40
21504;BME280;10913;51.992;9.228;2024-01-30T11:48:34;101343.84;;;10.49;88.17
21504;BME280;10913;51.992;9.228;2024-01-30T11:50:59;101342.03;;;10.46;87.35
21504;BME280;10913;51.992;9.228;2024-01-30T11:53:25;101336.72;;;10.43;87.89
21504;BME280;10913;51.992;9.228;2024-01-30T11:55:50;101342.13;;;10.52;88.09
21504;BME280;10913;51.992;9.228;2024-01-30T11:58:16;101341.31;;;10.58;87.95
21504;BME280;10913;51.992;9.228;2024-01-30T12:00:53;101333.44;;;10.65;88.06
21504;BME280;10913;51.992;9.228;2024-01-30T12:03:19;101340.53;;;10.69;87.99
21504;BME280;10913;51.992;9.228;2024-01-30T12:05:44;101345.78;;;10.68;87.95
21504;BME280;10913;51.992;9.228;2024-01-30T12:08:15;101337.88;;;10.69;87.84
21504;BME280;10913;51.992;9.228;2024-01-30T12:10:44;101340.53;;;10.71;87.68
21504;BME280;10913;51.992;9.228;2024-01-30T12:13:10;101346.69;;;10.70;87.60
21504;BME280;10913;51.992;9.228;2024-01-30T12:15:39;101340.53;;;10.69;87.99
21504;BME280;10913;51.992;9.228;2024-01-30T12:18:08;101341.47;;;10.75;88.09
21504;BME280;10913;51.992;9.228;2024-01-30T12:20:40;101339.78;;;10.86;88.00
21504;BME280;10913;51.992;9.228;2024-01-30T12:23:05;101343.44;;;11.00;87.96
21504;BME280;10913;51.992;9.228;2024-01-30T12:25:39;101339.13;;;11.11;87.62
21504;BME280;10913;51.992;9.228;2024-01-30T12:28:05;101338.41;;;11.33;87.26
21504;BME280;10913;51.992;9.228;2024-01-30T12:30:31;101338.50;;;11.49;86.44
21504;BME280;10913;51.992;9.228;2024-01-30T12:32:56;101327.13;;;11.65;86.30
21504;BME280;10913;51.992;9.228;2024-01-30T12:35:23;101336.09;;;11.85;85.65
21504;BME280;10913;51.992;9.228;2024-01-30T12:38:07;101336.19;;;12.10;85.24
21504;BME280;10913;51.992;9.228;2024-01-30T12:40:42;101331.84;;;12.31;84.62
21504;BME280;10913;51.992;9.228;2024-01-30T12:43:07;101329.19;;;12.30;82.04
21504;BME280;10913;51.992;9.228;2024-01-30T12:45:40;101327.44;;;12.32;82.23
21504;BME280;10913;51.992;9.228;2024-01-30T12:48:08;101330.91;;;12.13;82.55
21504;BME280;10913;51.992;9.228;2024-01-30T12:50:36;101331.78;;;12.07;83.02
21504;BME280;10913;51.992;9.228;2024-01-30T12:53:03;101327.34;;;12.04;83.54
21504;BME280;10913;51.992;9.228;2024-01-30T12:55:30;101328.22;;;12.02;83.73
21504;BME280;10913;51.992;9.228;2024-01-30T12:57:56;101327.34;;;11.98;83.71
21504;BME280;10913;51.992;9.228;2024-01-30T13:00:23;101325.56;;;11.96;83.84
21504;BME280;10913;51.992;9.228;2024-01-30T13:02:52;101332.63;;;11.95;84.16
21504;BME280;10913;51.992;9.228;2024-01-30T13:05:23;101337.03;;;11.93;84.41
21504;BME280;10913;51.992;9.228;2024-01-30T13:07:52;101336.13;;;11.91;84.59
21504;BME280;10913;51.992;9.228;2024-01-30T13:10:19;101332.56;;;11.86;84.81
21504;BME280;10913;51.992;9.228;2024-01-30T13:12:44;101344.91;;;11.84;84.79
21504;BME280;10913;51.992;9.228;2024-01-30T13:15:12;101336.91;;;11.75;85.04
21504;BME280;10913;51.992;9.228;2024-01-30T13:17:44;101340.41;;;11.71;85.61
21504;BME280;10913;51.992;9.228;2024-01-30T13:20:13;101333.31;;;11.65;86.14
21504;BME280;10913;51.992;9.228;2024-01-30T13:22:43;101349.19;;;11.65;86.43
21504;BME280;10913;51.992;9.228;2024-01-30T13:25:08;101348.28;;;11.63;86.48
21504;BME280;10913;51.992;9.228;2024-01-30T13:27:34;101354.47;;;11.64;86.28
21504;BME280;10913;51.992;9.228;2024-01-30T13:29:59;101346.53;;;11.64;86.97
21504;BME280;10913;51.992;9.228;2024-01-30T13:32:28;101356.22;;;11.63;87.14
21504;BME280;10913;51.992;9.228;2024-01-30T13:34:59;101352.69;;;11.60;86.88
21504;BME280;10913;51.992;9.228;2024-01-30T13:37:25;101347.41;;;11.58;87.31
21504;BME280;10913;51.992;9.228;2024-01-30T13:39:50;101351.75;;;11.52;87.41
21504;BME280;10913;51.992;9.228;2024-01-30T13:42:36;101351.72;;;11.47;87.47
21504;BME280;10913;51.992;9.228;2024-01-30T13:45:02;101350.81;;;11.42;87.73
21504;BME280;10913;51.992;9.228;2024-01-30T13:47:33;101350.78;;;11.37;88.05
21504;BME280;10913;51.992;9.228;2024-01-30T13:50:01;101355.19;;;11.35;88.27
21504;BME280;10913;51.992;9.228;2024-01-30T13:52:28;101365.72;;;11.31;88.50
21504;BME280;10913;51.992;9.228;2024-01-30T13:55:01;101360.41;;;11.28;88.55
21504;BME280;10913;51.992;9.228;2024-01-30T13:57:27;101352.44;;;11.23;88.60
21504;BME280;10913;51.992;9.228;2024-01-30T13:59:53;101353.31;;;11.22;88.57
21504;BME280;10913;51.992;9.228;2024-01-30T14:02:18;101357.72;;;11.19;89.00
21504;BME280;10913;51.992;9.228;2024-01-30T14:04:44;101355.94;;;11.21;89.11
21504;BME280;10913;51.992;9.228;2024-01-30T14:07:09;101347.97;;;11.19;89.35
21504;BME280;10913;51.992;9.228;2024-01-30T14:09:35;101347.97;;;11.19;89.29
21504;BME280;10913;51.992;9.228;2024-01-30T14:12:04;101347.13;;;11.20;89.50
21504;BME280;10913;51.992;9.228;2024-01-30T14:14:32;101343.59;;;11.21;89.85
21504;BME280;10913;51.992;9.228;2024-01-30T14:16:57;101348.91;;;11.18;89.96
21504;BME280;10913;51.992;9.228;2024-01-30T14:19:25;101353.28;;;11.19;90.01
21504;BME280;10913;51.992;9.228;2024-01-30T14:21:55;101359.47;;;11.18;90.11
21504;BME280;10913;51.992;9.228;2024-01-30T14:24:21;101351.50;;;11.20;90.07
21504;BME280;10913;51.992;9.228;2024-01-30T14:26:47;101349.78;;;11.23;90.17
21504;BME280;10913;51.992;9.228;2024-01-30T14:29:12;101348.88;;;11.20;90.39
21504;BME280;10913;51.992;9.228;2024-01-30T14:31:38;101349.75;;;11.20;90.26
21504;BME280;10913;51.992;9.228;2024-01-30T14:34:22;101352.41;;;11.20;90.47
21504;BME280;10913;51.992;9.228;2024-01-30T14:36:48;101357.72;;;11.22;90.46
21504;BME280;10913;51.992;9.228;2024-01-30T14:39:14;101355.06;;;11.20;90.73
21504;BME280;10913;51.992;9.228;2024-01-30T14:41:40;101353.28;;;11.19;90.76
21504;BME280;10913;51.992;9.228;2024-01-30T14:44:12;101348.91;;;11.18;90.82
21504;BME280;10913;51.992;9.228;2024-01-30T14:46:40;101353.28;;;11.16;90.85
21504;BME280;10913;51.992;9.228;2024-01-30T14:49:09;101355.03;;;11.14;91.07
21504;BME280;10913;51.992;9.228;2024-01-30T14:51:40;101359.44;;;11.14;91.33
21504;BME280;10913;51.992;9.228;2024-01-30T14:54:13;101357.63;;;11.10;91.47
21504;BME280;10913;51.992;9.228;2024-01-30T14:56:40;101353.19;;;11.05;91.57
21504;BME280;10913;51.992;9.228;2024-01-30T14:59:14;101348.75;;;11.03;91.87
21504;BME280;10913;51.992;9.228;2024-01-30T15:01:40;101363.72;;;11.01;91.69
21504;BME280;10913;51.992;9.228;2024-01-30T15:04:06;101366.34;;;10.99;92.00
21504;BME280;10913;51.992;9.228;2024-01-30T15:06:32;101364.56;;;10.97;92.09
21504;BME280;10913;51.992;9.228;2024-01-30T15:09:01;101368.09;;;10.96;92.50
21504;BME280;10913;51.992;9.228;2024-01-30T15:11:26;101364.53;;;10.94;92.85
21504;BME280;10913;51.992;9.228;2024-01-30T15:13:52;101361.88;;;10.92;93.04
21504;BME280;10913;51.992;9.228;2024-01-30T15:16:17;101364.47;;;10.88;93.56
21504;BME280;10913;51.992;9.228;2024-01-30T15:18:43;101369.72;;;10.83;93.87
21504;BME280;10913;51.992;9.228;2024-01-30T15:21:08;101373.22;;;10.81;94.05
21504;BME280;10913;51.992;9.228;2024-01-30T15:23:52;101374.97;;;10.80;94.23
21504;BME280;10913;51.992;9.228;2024-01-30T15:26:17;101381.16;;;10.78;94.34
21504;BME280;10913;51.992;9.228;2024-01-30T15:28:45;101374.97;;;10.77;94.52
21504;BME280;10913;51.992;9.228;2024-01-30T15:31:10;101374.94;;;10.74;94.50
21504;BME280;10913;51.992;9.228;2024-01-30T15:33:40;101382.84;;;10.73;95.21
21504;BME280;10913;51.992;9.228;2024-01-30T15:36:16;101384.59;;;10.70;95.25
21504;BME280;10913;51.992;9.228;2024-01-30T15:38:47;101381.91;;;10.67;95.21
21504;BME280;10913;51.992;9.228;2024-01-30T15:41:13;101385.41;;;10.65;95.56
21504;BME280;10913;51.992;9.228;2024-01-30T15:43:41;101396.81;;;10.62;95.51
21504;BME280;10913;51.992;9.228;2024-01-30T15:46:13;101401.19;;;10.57;95.54
21504;BME280;10913;51.992;9.228;2024-01-30T15:48:38;101403.84;;;10.57;95.95
21504;BME280;10913;51.992;9.228;2024-01-30T15:51:04;101395.00;;;10.55;96.40
21504;BME280;10913;51.992;9.228;2024-01-30T15:53:31;101394.09;;;10.53;96.34
21504;BME280;10913;51.992;9.228;2024-01-30T15:56:12;101393.16;;;10.48;96.41
21504;BME280;10913;51.992;9.228;2024-01-30T15:58:38;101404.56;;;10.46;96.34
21504;BME280;10913;51.992;9.228;2024-01-30T16:01:03;101401.88;;;10.41;96.76
21504;BME280;10913;51.992;9.228;2024-01-30T16:03:29;101404.47;;;10.40;96.66
21504;BME280;10913;51.992;9.228;2024-01-30T16:05:56;101409.75;;;10.37;97.11
21504;BME280;10913;51.992;9.228;2024-01-30T16:08:43;101410.59;;;10.34;97.36
21504;BME280;10913;51.992;9.228;2024-01-30T16:11:08;101417.63;;;10.32;97.63
21504;BME280;10913;51.992;9.228;2024-01-30T16:13:34;101416.72;;;10.31;97.50
21504;BME280;10913;51.992;9.228;2024-01-30T16:16:04;101410.56;;;10.31;97.49
21504;BME280;10913;51.992;9.228;2024-01-30T16:18:38;101412.28;;;10.29;98.02
21504;BME280;10913;51.992;9.228;2024-01-30T16:21:03;101412.34;;;10.32;100.00
21504;BME280;10913;51.992;9.228;2024-01-30T16:23:32;101409.75;;;10.37;100.00
21504;BME280;10913;51.992;9.228;2024-01-30T16:25:58;101413.34;;;10.45;100.00
21504;BME280;10913;51.992;9.228;2024-01-30T16:28:27;101411.72;;;10.54;100.00
21504;BME280;10913;51.992;9.228;2024-01-30T16:30:58;101418.00;;;10.65;100.00
21504;BME280;10913;51.992;9.228;2024-01-30T16:33:27;101423.44;;;10.81;100.00
21504;BME280;10913;51.992;9.228;2024-01-30T16:35:52;101423.56;;;10.90;100.00
21504;BME280;10913;51.992;9.228;2024-01-30T16:38:18;101421.00;;;11.00;100.00
21504;BME280;10913;51.992;9.228;2024-01-30T16:40:44;101418.38;;;11.02;100.00
21504;BME280;10913;51.992;9.228;2024-01-30T16:43:11;101422.81;;;11.06;100.00
21504;BME280;10913;51.992;9.228;2024-01-30T16:45:40;101421.06;;;11.07;100.00
21504;BME280;10913;51.992;9.228;2024-01-30T16:48:11;101411.34;;;11.04;100.00
21504;BME280;10913;51.992;9.228;2024-01-30T16:50:53;101421.94;;;11.07;100.00
21504;BME280;10913;51.992;9.228;2024-01-30T17:01:57;101421.88;;;10.98;100.00
21504;BME280;10913;51.992;9.228;2024-01-30T17:09:48;101422.06;;;11.16;100.00
21504;BME280;10913;51.992;9.228;2024-01-30T17:12:13;101438.81;;;11.17;100.00
21504;BME280;10913;51.992;9.228;2024-01-30T17:14:39;101440.59;;;11.18;100.00
21504;BME280;10913;51.992;9.228;2024-01-30T17:17:06;101444.06;;;11.14;100.00
21504;BME280;10913;51.992;9.228;2024-01-30T17:20:06;101449.38;;;11.15;100.00
21504;BME280;10913;51.992;9.228;2024-01-30T17:22:35;101446.69;;;11.12;100.00
21504;BME280;10913;51.992;9.228;2024-01-30T17:25:10;101446.69;;;11.12;100.00
21504;BME280;10913;51.992;9.228;2024-01-30T17:27:35;101451.13;;;11.13;100.00
21504;BME280;10913;51.992;9.228;2024-01-30T17:30:03;101459.91;;;11.12;100.00
21504;BME280;10913;51.992;9.228;2024-01-30T17:32:30;101458.13;;;11.10;100.00
21504;BME280;10913;51.992;9.228;2024-01-30T17:35:05;101457.16;;;11.03;100.00
21504;BME280;10913;51.992;9.228;2024-01-30T17:37:32;101458.94;;;11.04;100.00
21504;BME280;10913;51.992;9.228;2024-01-30T17:40:06;101455.44;;;11.05;100.00
21504;BME280;10913;51.992;9.228;2024-01-30T17:45:12;101453.72;;;11.10;100.00
21504;BME280;10913;51.992;9.228;2024-01-30T17:47:37;101459.91;;;11.11;100.00
21504;BME280;10913;51.992;9.228;2024-01-30T17:50:04;101467.00;;;11.19;100.00
21504;BME280;10913;51.992;9.228;2024-01-30T17:52:30;101469.66;;;11.19;100.00
21504;BME280;10913;51.992;9.228;2024-01-30T17:54:56;101471.44;;;11.17;100.00
21504;BME280;10913;51.992;9.228;2024-01-30T17:57:26;101489.97;;;11.22;100.00
21504;BME280;10913;51.992;9.228;2024-01-30T17:59:53;101484.69;;;11.22;100.00
21504;BME280;10913;51.992;9.228;2024-01-30T18:02:19;101490.84;;;11.22;100.00
21504;BME280;10913;51.992;9.228;2024-01-30T18:04:47;101504.06;;;11.18;99.46
21504;BME280;10913;51.992;9.228;2024-01-30T18:07:13;101497.84;;;11.13;98.79
21504;BME280;10913;51.992;9.228;2024-01-30T18:09:40;101494.31;;;11.12;97.38
21504;BME280;10913;51.992;9.228;2024-01-30T18:12:05;101498.69;;;11.10;96.74
21504;BME280;10913;51.992;9.228;2024-01-30T18:14:36;101506.59;;;11.07;96.11
21504;BME280;10913;51.992;9.228;2024-01-30T18:17:04;101505.66;;;11.03;95.71
21504;BME280;10913;51.992;9.228;2024-01-30T18:19:29;101522.41;;;11.04;95.38
21504;BME280;10913;51.992;9.228;2024-01-30T18:21:55;101512.66;;;11.00;94.69
21504;BME280;10913;51.992;9.228;2024-01-30T18:24:20;101516.22;;;10.99;93.84
21504;BME280;10913;51.992;9.228;2024-01-30T18:26:50;101530.28;;;10.99;93.33
21504;BME280;10913;51.992;9.228;2024-01-30T18:29:21;101524.16;;;11.02;93.04
21504;BME280;10913;51.992;9.228;2024-01-30T18:31:47;101528.53;;;10.98;93.38
21504;BME280;10913;51.992;9.228;2024-01-30T18:34:12;101528.50;;;10.95;93.40
21504;BME280;10913;51.992;9.228;2024-01-30T18:36:45;101535.53;;;10.95;93.89
21504;BME280;10913;51.992;9.228;2024-01-30T18:39:10;101531.91;;;10.87;92.30
21504;BME280;10913;51.992;9.228;2024-01-30T18:41:36;101547.72;;;10.82;91.20
21504;BME280;10913;51.992;9.228;2024-01-30T18:44:04;101548.53;;;10.77;90.94
21504;BME280;10913;51.992;9.228;2024-01-30T18:46:36;101544.91;;;10.68;87.77
21504;BME280;10913;51.992;9.228;2024-01-30T18:49:02;101560.75;;;10.67;87.57